This is the latest recevied weather packets stored in our database for station/object LRBM. If no packets are shown the sender has not sent any weather packets the latest 10 day(s).
| Time | Temp. | Humidity | Pressure | Rain* | Wind** | Luminosity | Snow |
|---|---|---|---|---|---|---|---|
| 1777790052 | 12.78° C | 41% | 1023 hPa | - | - | - | - |
| 1777789116 | 12.22° C | 51% | 1023 hPa | - | - | - | - |
| 1777788215 | 12.22° C | 51% | 1023 hPa | - | - | - | - |
| 1777787315 | 10° C | 58% | 1023 hPa | - | - | - | - |
| 1777786415 | 10° C | 58% | 1023 hPa | - | - | - | - |
| 1777785515 | 10° C | 58% | 1023 hPa | - | - | - | - |
| 1777784615 | 10° C | 58% | 1023 hPa | - | - | - | - |
| 1777783715 | 8.89° C | 62% | 1023 hPa | - | - | - | - |
| 1777782817 | 8.89° C | 62% | 1023 hPa | - | - | - | - |
| 1777781915 | 6.11° C | 71% | 1023 hPa | - | - | - | - |
| 1777781038 | 6.11° C | 71% | 1023 hPa | - | - | - | - |
| 1777780117 | 5° C | 76% | 1023 hPa | - | - | - | - |
| 1777779215 | 5° C | 76% | 1023 hPa | - | - | - | - |
| 1777778316 | 3.89° C | 81% | 1023 hPa | - | - | - | - |
| 1777777415 | 3.89° C | 81% | 1023 hPa | - | - | - | - |
| 1777776530 | 6.11° C | 71% | 1023 hPa | - | - | - | - |
| 1777775616 | 6.11° C | 71% | 1023 hPa | - | - | - | - |
| 1777774715 | 6.11° C | 71% | 1023 hPa | - | - | - | - |
| 1777773815 | 6.11° C | 71% | 1023 hPa | - | - | - | - |
| 1777770216 | 5° C | 76% | 1022 hPa | - | - | - | - |
| 1777768415 | 6.11° C | 66% | 1022 hPa | - | - | - | - |
| 1777767518 | 6.11° C | 71% | 1022 hPa | - | - | - | - |
| 1777766615 | 6.11° C | 71% | 1022 hPa | - | - | - | - |
| 1777764815 | 7.22° C | 61% | 1022 hPa | - | - | - | - |
| 1777763916 | 7.78° C | 62% | 1022 hPa | - | - | - | - |
* Rain since midnight (hover to see other rain measurements)
** Current wind speed in m/s (hover to see current wind gust speed)